Time;durP1;ratioP1;P1;durP2;ratioP2;P2;SDS_P1;SDS_P2;PMS_P1;PMS_P2;Temp;Humidity;BMP_temperature;BMP_pressure;BME280_temperature;BME280_humidity;BME280_pressure;Samples;Min_cycle;Max_cycle;Signal;HPM_P1;HPM_P2
2023/03/01 04:02:26;;;;;;;23.20;18.57;;;0.00;99.90;;;;;;5125150;23;20242;-80
2023/03/01 04:04:52;;;;;;;25.20;17.47;;;0.00;99.90;;;;;;4952058;29;20186;-81
2023/03/01 04:07:17;;;;;;;27.77;17.83;;;0.10;99.90;;;;;;4943756;29;20187;-80
2023/03/01 04:09:43;;;;;;;24.67;18.20;;;0.10;99.90;;;;;;4945162;29;20273;-81
2023/03/01 04:12:10;;;;;;;23.57;17.97;;;0.10;99.90;;;;;;4941946;28;20242;-81
2023/03/01 04:14:36;;;;;;;25.07;17.63;;;0.10;99.90;;;;;;4935271;29;20210;-80
2023/03/01 04:17:05;;;;;;;23.30;18.03;;;0.10;99.90;;;;;;4936891;29;20254;-80
2023/03/01 04:19:35;;;;;;;26.43;19.70;;;0.10;99.90;;;;;;4916768;29;20196;-81
2023/03/01 04:22:09;;;;;;;27.63;19.57;;;0.10;99.90;;;;;;4912342;29;20216;-81
2023/03/01 04:24:37;;;;;;;24.20;19.13;;;0.10;99.90;;;;;;4910899;29;20238;-81
2023/03/01 04:27:03;;;;;;;25.30;18.23;;;0.10;99.90;;;;;;4912124;29;20192;-81
2023/03/01 04:29:29;;;;;;;26.23;18.50;;;0.20;99.90;;;;;;4909356;29;20267;-81
2023/03/01 04:31:55;;;;;;;23.10;17.60;;;0.20;99.90;;;;;;4916722;29;20222;-81
2023/03/01 04:34:21;;;;;;;26.40;18.83;;;0.20;99.90;;;;;;4917417;29;20613;-81
2023/03/01 04:36:46;;;;;;;25.97;17.83;;;0.20;99.90;;;;;;4908148;29;20184;-81
2023/03/01 04:39:12;;;;;;;25.27;18.13;;;0.20;99.90;;;;;;4906703;29;20180;-81
2023/03/01 04:41:39;;;;;;;26.67;19.40;;;0.20;99.90;;;;;;4909210;29;20204;-80
2023/03/01 04:44:08;;;;;;;22.87;17.90;;;0.20;99.90;;;;;;4906881;29;20188;-80
2023/03/01 04:46:35;;;;;;;25.10;17.63;;;0.30;99.90;;;;;;4915554;29;20199;-83
2023/03/01 04:49:04;;;;;;;27.03;17.57;;;0.30;99.90;;;;;;4926489;29;20187;-80
2023/03/01 04:51:32;;;;;;;25.50;18.50;;;0.30;99.90;;;;;;4938137;29;20233;-80
2023/03/01 04:54:00;;;;;;;26.77;17.93;;;0.30;99.90;;;;;;4934603;29;20211;-80
2023/03/01 04:56:26;;;;;;;24.87;17.73;;;0.30;99.90;;;;;;4927284;29;20597;-81
2023/03/01 04:58:53;;;;;;;28.83;19.00;;;0.30;99.90;;;;;;4917767;29;20190;-80
2023/03/01 05:01:20;;;;;;;28.97;17.97;;;0.30;99.90;;;;;;4916133;29;20234;-81
2023/03/01 05:03:49;;;;;;;29.97;19.70;;;0.30;99.90;;;;;;4913726;29;20349;-81
2023/03/01 05:06:16;;;;;;;24.17;18.03;;;0.40;99.90;;;;;;4931483;29;20183;-82
2023/03/01 05:08:43;;;;;;;27.87;19.63;;;0.40;99.90;;;;;;4927934;29;20539;-80
2023/03/01 05:11:09;;;;;;;28.57;19.47;;;0.50;99.90;;;;;;4925001;29;20218;-81
2023/03/01 05:13:37;;;;;;;27.73;18.10;;;0.40;99.90;;;;;;4926096;29;20198;-81
2023/03/01 05:16:03;;;;;;;26.30;17.93;;;0.30;99.90;;;;;;4930388;29;20169;-80
2023/03/01 05:18:33;;;;;;;26.27;18.90;;;0.40;99.90;;;;;;4937868;29;20190;-80
2023/03/01 05:21:11;;;;;;;32.10;19.63;;;0.40;99.90;;;;;;4931951;29;20222;-79
2023/03/01 05:23:37;;;;;;;25.10;19.00;;;0.40;99.90;;;;;;4930294;29;20205;-80
2023/03/01 05:26:05;;;;;;;28.90;19.47;;;0.40;99.90;;;;;;4927314;29;20567;-80
2023/03/01 05:28:32;;;;;;;26.90;19.90;;;0.50;99.90;;;;;;4926095;29;20187;-80
2023/03/01 05:30:58;;;;;;;28.90;18.57;;;0.50;99.90;;;;;;4925385;29;20202;-80
2023/03/01 05:33:25;;;;;;;23.53;17.47;;;0.50;99.90;;;;;;4924711;29;20278;-80
2023/03/01 05:35:53;;;;;;;30.37;20.37;;;0.50;99.90;;;;;;4925310;29;20186;-80
2023/03/01 05:38:20;;;;;;;27.50;19.63;;;0.60;99.90;;;;;;4926636;29;20183;-80
2023/03/01 05:40:47;;;;;;;29.83;18.93;;;0.60;99.90;;;;;;4926705;29;20614;-79
2023/03/01 05:43:14;;;;;;;28.33;18.53;;;0.60;99.90;;;;;;4927626;29;20198;-81
2023/03/01 05:45:41;;;;;;;28.53;19.83;;;0.70;99.90;;;;;;4926822;29;20198;-80
2023/03/01 05:48:08;;;;;;;26.30;18.17;;;0.70;99.90;;;;;;4925754;29;20262;-80
2023/03/01 05:50:37;;;;;;;25.70;18.17;;;0.80;99.90;;;;;;4924723;29;20183;-80
2023/03/01 05:53:15;;;;;;;28.73;19.87;;;0.80;99.90;;;;;;4922904;29;20242;-80
2023/03/01 05:55:42;;;;;;;27.30;18.67;;;0.70;99.90;;;;;;4924340;29;20187;-80
2023/03/01 05:58:11;;;;;;;27.23;18.07;;;0.70;99.90;;;;;;4922768;29;20187;-80
2023/03/01 06:00:37;;;;;;;25.20;18.77;;;0.70;99.90;;;;;;4922632;29;20179;-80
2023/03/01 06:03:03;;;;;;;25.83;18.23;;;0.70;99.90;;;;;;4924132;29;20780;-80
2023/03/01 06:05:29;;;;;;;26.20;18.30;;;0.60;99.90;;;;;;4938622;29;20202;-68
2023/03/01 06:07:54;;;;;;;30.57;18.53;;;0.60;99.90;;;;;;4932877;29;20198;-68
2023/03/01 06:10:22;;;;;;;28.83;20.00;;;0.60;99.90;;;;;;4930109;29;20210;-68
2023/03/01 06:12:47;;;;;;;25.97;19.23;;;0.60;99.90;;;;;;4915036;29;20222;-68
2023/03/01 06:15:15;;;;;;;27.37;19.60;;;0.50;99.90;;;;;;4901861;29;20190;-68
2023/03/01 06:17:42;;;;;;;33.00;21.10;;;0.50;99.90;;;;;;4897403;29;20279;-68
2023/03/01 06:20:11;;;;;;;31.67;21.10;;;0.50;99.90;;;;;;4914056;29;20183;-68
2023/03/01 06:22:38;;;;;;;29.70;19.90;;;0.50;99.90;;;;;;4914742;29;20214;-68
2023/03/01 06:25:05;;;;;;;33.47;21.73;;;0.50;99.90;;;;;;4914294;29;20564;-68
2023/03/01 06:27:30;;;;;;;26.63;17.23;;;0.40;99.90;;;;;;4916414;29;20723;-68
2023/03/01 06:29:56;;;;;;;27.10;18.40;;;0.40;99.90;;;;;;4914461;29;20195;-68
2023/03/01 06:32:22;;;;;;;24.30;19.00;;;0.40;99.90;;;;;;4914015;29;20273;-73
2023/03/01 06:34:49;;;;;;;26.93;18.97;;;0.40;99.90;;;;;;4917255;29;20187;-74
2023/03/01 06:37:14;;;;;;;29.93;18.17;;;0.30;99.90;;;;;;4915341;29;20183;-72
2023/03/01 06:39:40;;;;;;;25.30;18.13;;;0.30;99.90;;;;;;4913094;29;20187;-72
2023/03/01 06:42:08;;;;;;;30.30;19.90;;;0.30;99.90;;;;;;4915318;29;20207;-73
2023/03/01 06:44:33;;;;;;;30.97;18.67;;;0.30;99.90;;;;;;4915050;29;20179;-73
2023/03/01 06:46:59;;;;;;;34.77;20.03;;;0.30;99.90;;;;;;4915340;29;20731;-74
2023/03/01 06:49:25;;;;;;;27.77;18.97;;;0.30;99.90;;;;;;4914049;29;20191;-74
2023/03/01 06:51:51;;;;;;;30.13;21.40;;;0.30;99.90;;;;;;4913965;29;20226;-73
2023/03/01 06:54:17;;;;;;;31.70;20.10;;;0.40;99.90;;;;;;4914059;29;20175;-74
2023/03/01 06:56:46;;;;;;;26.10;17.17;;;0.50;99.90;;;;;;4915846;29;20180;-72
2023/03/01 06:59:11;;;;;;;25.80;19.07;;;0.50;99.90;;;;;;4915458;29;20225;-72
2023/03/01 07:01:38;;;;;;;30.67;20.23;;;0.60;99.90;;;;;;4913789;29;20246;-73
2023/03/01 07:04:04;;;;;;;24.07;16.83;;;0.70;99.90;;;;;;4913733;29;20618;-73
2023/03/01 07:06:30;;;;;;;24.27;17.43;;;0.70;99.90;;;;;;4898946;29;20282;-73
2023/03/01 07:08:55;;;;;;;35.13;19.30;;;0.80;99.90;;;;;;4912153;29;20671;-73
2023/03/01 07:11:22;;;;;;;27.50;18.47;;;0.90;99.90;;;;;;4914406;29;20687;-73
2023/03/01 07:13:48;;;;;;;25.60;17.50;;;1.00;99.90;;;;;;4913668;29;20178;-74
2023/03/01 07:16:14;;;;;;;31.73;19.33;;;1.10;99.90;;;;;;4914550;29;20190;-73
2023/03/01 07:18:40;;;;;;;25.77;18.17;;;1.30;99.90;;;;;;4914905;29;20191;-73
2023/03/01 07:21:09;;;;;;;26.13;19.40;;;1.50;99.90;;;;;;4913237;29;20265;-73
2023/03/01 07:23:35;;;;;;;27.63;18.00;;;1.80;99.90;;;;;;4913582;29;20292;-74
2023/03/01 07:26:01;;;;;;;28.40;18.27;;;2.00;99.90;;;;;;4914452;29;20639;-73
2023/03/01 07:28:27;;;;;;;24.07;16.73;;;2.20;99.90;;;;;;4913496;29;20651;-73
2023/03/01 07:30:53;;;;;;;24.97;18.17;;;2.40;99.90;;;;;;4913818;29;20210;-73
2023/03/01 07:33:19;;;;;;;25.77;16.47;;;2.50;99.90;;;;;;4921198;29;20214;-74
2023/03/01 07:35:45;;;;;;;26.80;18.67;;;2.80;99.90;;;;;;4935492;29;20216;-73
2023/03/01 07:38:11;;;;;;;25.27;18.53;;;3.00;99.90;;;;;;4935288;29;20178;-71
2023/03/01 07:40:36;;;;;;;23.77;17.13;;;3.20;99.90;;;;;;4940760;29;20186;-72
2023/03/01 07:43:02;;;;;;;26.70;19.77;;;3.20;99.90;;;;;;4941067;29;20298;-73
2023/03/01 07:45:28;;;;;;;24.40;21.80;;;3.30;99.90;;;;;;4933200;29;20186;-73
2023/03/01 07:47:55;;;;;;;25.70;20.63;;;3.40;99.90;;;;;;4933935;29;20201;-74
2023/03/01 07:50:22;;;;;;;22.77;18.53;;;3.50;99.90;;;;;;4942788;29;20765;-73
2023/03/01 07:52:49;;;;;;;28.07;20.17;;;3.50;99.90;;;;;;4934179;29;20222;-74
2023/03/01 07:55:16;;;;;;;29.10;19.10;;;3.50;99.90;;;;;;4932076;29;20186;-73
2023/03/01 07:57:42;;;;;;;25.17;17.33;;;3.60;99.90;;;;;;4933750;29;20174;-73
2023/03/01 08:00:11;;;;;;;19.10;14.90;;;3.90;99.90;;;;;;4934609;29;20278;-73
2023/03/01 08:02:37;;;;;;;19.43;14.83;;;3.80;99.90;;;;;;4934312;29;20252;-73
2023/03/01 08:05:03;;;;;;;22.37;15.27;;;3.60;99.90;;;;;;4934111;29;20195;-73
2023/03/01 08:07:29;;;;;;;24.87;18.07;;;3.60;99.90;;;;;;4933886;29;20186;-72
2023/03/01 08:09:54;;;;;;;20.53;17.10;;;3.50;99.90;;;;;;4933619;29;20190;-72
2023/03/01 08:12:20;;;;;;;28.83;15.03;;;3.80;99.90;;;;;;4933272;29;20221;-72
2023/03/01 08:14:46;;;;;;;26.17;14.27;;;3.70;99.90;;;;;;4932034;29;20189;-72
2023/03/01 08:17:14;;;;;;;25.63;18.00;;;3.90;99.90;;;;;;4933491;29;20564;-72
2023/03/01 08:19:40;;;;;;;13.00;11.30;;;3.90;99.90;;;;;;4935108;29;20548;-72
2023/03/01 08:22:05;;;;;;;22.57;15.43;;;4.10;99.90;;;;;;4935803;29;20302;-73
2023/03/01 08:24:31;;;;;;;22.60;14.83;;;4.10;99.90;;;;;;4935292;29;20185;-73
2023/03/01 08:26:57;;;;;;;25.50;16.90;;;4.10;99.90;;;;;;4935663;29;20182;-73
2023/03/01 08:29:24;;;;;;;19.93;14.33;;;4.30;99.90;;;;;;4935514;29;20186;-73
2023/03/01 08:31:50;;;;;;;15.30;13.60;;;4.30;99.90;;;;;;4935320;29;20218;-74
2023/03/01 08:34:18;;;;;;;25.10;17.47;;;4.20;99.90;;;;;;4936243;29;20194;-73
2023/03/01 08:36:45;;;;;;;22.13;16.43;;;4.50;99.90;;;;;;4935350;29;20273;-73
2023/03/01 08:39:14;;;;;;;23.60;17.37;;;4.80;99.90;;;;;;4935222;29;20234;-73
2023/03/01 08:41:40;;;;;;;17.37;14.17;;;4.60;99.90;;;;;;4935280;29;20636;-73
2023/03/01 08:44:07;;;;;;;19.10;14.93;;;4.40;99.90;;;;;;4936072;29;20229;-72
2023/03/01 08:46:38;;;;;;;26.00;18.63;;;4.60;99.90;;;;;;4936352;29;20206;-73
2023/03/01 08:49:13;;;;;;;26.87;15.93;;;4.70;99.90;;;;;;4935285;29;20624;-74
2023/03/01 08:51:39;;;;;;;20.73;15.27;;;4.90;99.90;;;;;;4935978;29;20304;-74
2023/03/01 08:54:17;;;;;;;21.97;15.70;;;5.10;99.90;;;;;;4936482;29;20193;-73
2023/03/01 08:56:44;;;;;;;14.50;11.67;;;5.00;99.90;;;;;;4936387;29;20186;-72
2023/03/01 08:59:15;;;;;;;16.40;12.27;;;5.10;99.90;;;;;;4937887;29;20299;-73
2023/03/01 09:01:43;;;;;;;24.77;17.17;;;5.20;99.90;;;;;;4939207;29;20225;-75
2023/03/01 09:04:09;;;;;;;24.00;16.67;;;5.40;99.90;;;;;;4934917;29;20209;-73
2023/03/01 09:06:36;;;;;;;24.33;17.63;;;5.60;99.90;;;;;;4936510;29;20944;-74
2023/03/01 09:09:04;;;;;;;25.27;16.27;;;5.90;99.90;;;;;;4936029;29;20214;-74
2023/03/01 09:11:30;;;;;;;24.57;17.67;;;6.10;99.90;;;;;;4934536;29;20234;-73
2023/03/01 09:13:55;;;;;;;20.27;15.10;;;6.40;99.90;;;;;;4935998;29;20581;-74
2023/03/01 09:16:23;;;;;;;23.87;17.80;;;6.40;99.90;;;;;;4935603;29;20187;-74
2023/03/01 09:18:53;;;;;;;17.77;14.60;;;6.90;99.90;;;;;;4906298;29;20195;-74
2023/03/01 09:21:22;;;;;;;30.00;18.07;;;7.00;99.90;;;;;;4897833;29;20231;-74
2023/03/01 09:23:49;;;;;;;23.07;16.37;;;7.00;99.90;;;;;;4905628;29;20262;-73
2023/03/01 09:26:22;;;;;;;15.17;12.40;;;7.10;99.90;;;;;;4916195;29;20186;-74
2023/03/01 09:28:49;;;;;;;21.67;16.67;;;6.70;99.90;;;;;;4918661;29;20183;-73
2023/03/01 09:31:17;;;;;;;20.70;13.30;;;6.70;99.90;;;;;;4919561;29;20207;-74
2023/03/01 09:33:45;;;;;;;20.03;14.63;;;7.00;99.90;;;;;;4915245;29;20691;-73
2023/03/01 09:36:13;;;;;;;25.83;18.33;;;7.00;99.90;;;;;;4915350;29;20592;-73
2023/03/01 09:38:39;;;;;;;23.90;16.33;;;7.20;99.90;;;;;;4916993;29;20183;-73
2023/03/01 09:41:17;;;;;;;25.03;17.43;;;7.60;99.90;;;;;;4916102;29;20396;-74
2023/03/01 09:43:53;;;;;;;19.40;13.17;;;8.20;99.90;;;;;;4916227;29;20663;-74
2023/03/01 09:46:23;;;;;;;27.33;18.73;;;9.00;99.60;;;;;;4914680;29;20217;-74
2023/03/01 09:48:56;;;;;;;18.23;14.23;;;9.30;98.30;;;;;;4915790;29;20346;-74
2023/03/01 09:51:35;;;;;;;12.60;10.93;;;9.30;96.20;;;;;;4919422;29;20207;-74
2023/03/01 09:54:03;;;;;;;15.90;12.33;;;8.90;96.40;;;;;;4921634;29;20286;-73
2023/03/01 09:56:33;;;;;;;23.10;16.57;;;8.80;96.30;;;;;;4916521;29;20191;-74
2023/03/01 09:59:05;;;;;;;13.87;11.90;;;8.90;96.30;;;;;;4915936;29;20183;-73
2023/03/01 10:01:38;;;;;;;21.73;14.03;;;8.90;95.30;;;;;;4915453;29;20211;-74
2023/03/01 10:04:37;;;;;;;18.03;12.80;;;8.60;95.70;;;;;;4929482;29;20217;-73
2023/03/01 10:07:36;;;;;;;14.70;12.67;;;8.70;95.60;;;;;;4933412;29;20190;-73
2023/03/01 10:10:15;;;;;;;19.97;16.33;;;9.00;95.10;;;;;;4934235;29;20237;-73
2023/03/01 10:12:42;;;;;;;21.93;16.53;;;8.80;95.30;;;;;;4908641;29;20223;-72
2023/03/01 10:15:16;;;;;;;21.33;15.80;;;9.00;94.90;;;;;;4906863;29;20179;-72
2023/03/01 10:17:52;;;;;;;20.97;15.40;;;9.50;94.30;;;;;;4915514;29;20551;-72
2023/03/01 10:20:24;;;;;;;24.03;16.60;;;10.00;93.00;;;;;;4917714;29;20209;-72
2023/03/01 10:22:52;;;;;;;17.73;13.07;;;10.00;92.40;;;;;;4916155;29;20194;-73
2023/03/01 10:25:43;;;;;;;19.37;14.80;;;10.00;92.10;;;;;;4915003;29;20230;-73
2023/03/01 10:28:39;;;;;;;21.60;13.77;;;9.70;92.70;;;;;;4913954;29;20202;-73
2023/03/01 10:31:11;;;;;;;17.37;12.77;;;9.90;92.20;;;;;;4915467;29;20210;-73
2023/03/01 10:33:39;;;;;;;15.50;11.27;;;10.40;91.20;;;;;;4915193;29;20560;-73
2023/03/01 10:36:05;;;;;;;15.37;11.00;;;10.20;90.90;;;;;;4913838;29;20663;-73
2023/03/01 10:38:53;;;;;;;20.73;15.60;;;10.10;91.70;;;;;;4915136;29;20631;-72
2023/03/01 10:41:23;;;;;;;16.47;13.70;;;10.20;91.90;;;;;;4914806;29;20767;-73
2023/03/01 10:43:56;;;;;;;19.87;15.30;;;10.10;91.50;;;;;;4914673;29;20208;-74
2023/03/01 10:46:36;;;;;;;13.87;12.23;;;10.40;91.10;;;;;;4914854;29;20564;-72
2023/03/01 10:49:17;;;;;;;21.30;15.47;;;10.20;90.30;;;;;;4915191;29;20548;-73
2023/03/01 10:51:46;;;;;;;20.87;14.37;;;9.90;90.50;;;;;;4913963;29;20215;-72
2023/03/01 10:54:32;;;;;;;14.10;12.60;;;10.70;90.50;;;;;;4913649;29;20187;-73
2023/03/01 10:57:01;;;;;;;22.17;16.57;;;11.00;88.60;;;;;;4915214;29;20186;-73
2023/03/01 10:59:36;;;;;;;21.40;12.47;;;11.10;89.60;;;;;;4915154;29;20565;-73
2023/03/01 11:02:27;;;;;;;12.87;10.80;;;11.40;86.30;;;;;;4914964;29;20214;-73
2023/03/01 11:05:12;;;;;;;18.93;12.63;;;11.20;85.60;;;;;;4914596;29;20631;-73
2023/03/01 11:07:55;;;;;;;15.27;12.40;;;11.00;87.60;;;;;;4915007;29;20218;-73
2023/03/01 11:10:24;;;;;;;21.17;14.90;;;11.40;85.80;;;;;;4913854;29;20190;-73
2023/03/01 11:12:54;;;;;;;14.83;12.87;;;11.70;84.80;;;;;;4915145;29;20678;-73
2023/03/01 11:15:22;;;;;;;18.43;14.70;;;12.00;83.50;;;;;;4914920;29;20179;-73
2023/03/01 11:17:50;;;;;;;17.93;15.80;;;12.60;81.50;;;;;;4917557;29;20194;-73
2023/03/01 11:20:25;;;;;;;17.53;14.90;;;13.00;79.60;;;;;;4917082;29;20187;-73
2023/03/01 11:23:01;;;;;;;18.63;15.63;;;12.40;79.30;;;;;;4914972;29;20187;-73
2023/03/01 11:25:32;;;;;;;20.50;17.77;;;12.30;80.50;;;;;;4914331;29;20193;-73
2023/03/01 11:28:01;;;;;;;17.27;15.60;;;12.20;79.90;;;;;;4917989;29;20238;-73
2023/03/01 11:30:29;;;;;;;20.17;18.17;;;13.10;77.90;;;;;;4916828;29;20194;-72
2023/03/01 11:33:36;;;;;;;20.83;18.83;;;13.20;76.70;;;;;;4916398;29;20562;-73
2023/03/01 11:36:20;;;;;;;18.50;16.63;;;13.30;75.90;;;;;;4914481;29;20171;-72
2023/03/01 11:38:47;;;;;;;19.17;17.27;;;13.20;74.70;;;;;;4913569;29;20558;-72
2023/03/01 11:41:28;;;;;;;16.93;15.37;;;13.10;75.30;;;;;;4899855;29;20850;-72
2023/03/01 11:44:05;;;;;;;20.33;18.27;;;12.90;76.00;;;;;;4898166;29;20195;-73
2023/03/01 11:46:31;;;;;;;21.27;18.17;;;13.00;75.10;;;;;;4905486;29;20218;-73
2023/03/01 11:49:02;;;;;;;17.17;15.10;;;13.70;74.40;;;;;;4912834;29;20210;-72
2023/03/01 11:52:00;;;;;;;16.57;15.07;;;13.80;72.40;;;;;;4914065;29;20714;-67
2023/03/01 11:54:51;;;;;;;20.80;18.03;;;13.10;74.20;;;;;;4915446;29;20191;-67
2023/03/01 11:57:28;;;;;;;21.73;19.00;;;13.10;75.90;;;;;;4918826;29;20567;-67
2023/03/01 12:00:13;;;;;;;22.07;19.33;;;13.00;75.30;;;;;;4899068;29;20274;-67
2023/03/01 12:02:51;;;;;;;18.53;15.87;;;13.60;74.60;;;;;;4898743;29;20215;-67
2023/03/01 12:05:52;;;;;;;16.27;14.57;;;13.90;73.60;;;;;;4897567;29;20282;-67
2023/03/01 12:08:24;;;;;;;17.97;15.83;;;13.70;72.50;;;;;;4897909;29;20214;-67
2023/03/01 12:11:08;;;;;;;19.20;17.17;;;13.40;73.50;;;;;;4898536;29;20207;-67
2023/03/01 12:13:59;;;;;;;14.27;12.90;;;13.40;73.70;;;;;;4898812;29;20266;-67
2023/03/01 12:17:06;;;;;;;15.63;14.13;;;13.00;73.30;;;;;;4897049;29;20263;-67
2023/03/01 12:20:01;;;;;;;19.80;17.63;;;12.90;73.60;;;;;;4898618;29;20184;-67
2023/03/01 12:22:34;;;;;;;19.83;17.73;;;13.40;73.50;;;;;;4901048;29;20347;-67
2023/03/01 12:25:34;;;;;;;17.13;15.30;;;14.20;71.00;;;;;;4935725;29;20189;-67
2023/03/01 12:28:45;;;;;;;19.57;17.27;;;14.30;70.60;;;;;;4907676;29;20271;-67
2023/03/01 12:31:42;;;;;;;17.77;15.43;;;13.50;71.90;;;;;;4897305;29;20219;-67
2023/03/01 12:34:30;;;;;;;16.53;13.83;;;12.80;72.90;;;;;;4898080;29;20195;-67
2023/03/01 12:37:25;;;;;;;15.37;13.77;;;13.50;72.40;;;;;;4898399;29;20215;-66
2023/03/01 12:40:22;;;;;;;15.93;14.33;;;13.60;71.30;;;;;;4897439;29;20259;-66
2023/03/01 12:43:06;;;;;;;17.37;15.50;;;14.10;69.80;;;;;;4882376;29;20219;-67
2023/03/01 12:45:56;;;;;;;17.50;15.67;;;14.10;70.20;;;;;;4897919;29;20183;-67
2023/03/01 12:49:03;;;;;;;18.93;16.97;;;14.90;68.30;;;;;;4898276;29;20194;-67
2023/03/01 12:51:32;;;;;;;15.30;10.03;;;15.20;67.60;;;;;;4893185;29;20227;-67
2023/03/01 12:54:01;;;;;;;19.03;15.03;;;15.50;65.10;;;;;;4898324;29;20215;-67
2023/03/01 12:56:30;;;;;;;15.03;12.37;;;15.10;65.90;;;;;;4897798;29;20180;-67
2023/03/01 12:59:06;;;;;;;15.97;12.90;;;14.80;66.70;;;;;;4897949;29;20179;-67
2023/03/01 13:01:56;;;;;;;18.20;12.70;;;15.30;66.40;;;;;;4897875;29;20222;-67
2023/03/01 13:04:27;;;;;;;17.33;13.23;;;15.50;65.10;;;;;;4896430;29;20196;-67
2023/03/01 13:07:08;;;;;;;13.73;11.03;;;16.00;63.20;;;;;;4896333;29;20275;-67
2023/03/01 13:09:55;;;;;;;13.97;12.27;;;16.00;62.40;;;;;;4897797;29;20184;-67
2023/03/01 13:12:44;;;;;;;13.70;11.83;;;16.40;62.00;;;;;;4896254;29;20668;-67
2023/03/01 13:15:36;;;;;;;17.67;13.87;;;16.60;61.00;;;;;;4897409;29;20195;-73
2023/03/01 13:18:25;;;;;;;13.17;11.73;;;16.90;59.80;;;;;;4896240;29;20188;-73
2023/03/01 13:20:57;;;;;;;10.93;9.83;;;17.30;59.00;;;;;;4910664;29;20215;-73
2023/03/01 13:23:23;;;;;;;15.43;13.47;;;16.50;59.00;;;;;;4915476;29;20226;-73
2023/03/01 13:26:16;;;;;;;19.50;14.43;;;16.00;61.30;;;;;;4916181;29;20243;-73
2023/03/01 13:28:45;;;;;;;17.73;14.07;;;16.60;59.90;;;;;;4916750;29;20237;-73
2023/03/01 13:31:31;;;;;;;17.80;15.97;;;16.60;59.60;;;;;;4915227;29;20258;-73
2023/03/01 13:34:01;;;;;;;18.70;16.43;;;17.60;57.70;;;;;;4911368;29;20853;-73
2023/03/01 13:36:30;;;;;;;17.70;15.33;;;18.30;56.30;;;;;;4906978;29;20187;-73
2023/03/01 13:38:57;;;;;;;16.43;14.73;;;17.90;56.10;;;;;;4915017;29;20214;-73
2023/03/01 13:41:38;;;;;;;21.07;16.00;;;17.30;55.90;;;;;;4914887;29;20199;-73
2023/03/01 13:44:26;;;;;;;12.70;11.50;;;15.80;58.40;;;;;;4914913;29;20457;-73
2023/03/01 13:47:17;;;;;;;17.60;13.50;;;15.30;60.40;;;;;;4915031;29;20615;-73
2023/03/01 13:49:57;;;;;;;11.37;10.13;;;15.50;60.60;;;;;;4915664;29;20259;-73
2023/03/01 13:52:40;;;;;;;23.37;13.93;;;15.80;59.60;;;;;;4914745;29;20198;-73
2023/03/01 13:55:20;;;;;;;12.13;10.27;;;15.60;59.60;;;;;;4919498;29;20187;-72
2023/03/01 13:57:53;;;;;;;13.00;10.43;;;14.90;61.40;;;;;;4915637;29;20666;-73
2023/03/01 14:00:37;;;;;;;15.27;12.23;;;14.80;63.00;;;;;;4915776;29;20283;-73
2023/03/01 14:03:15;;;;;;;17.57;13.73;;;14.50;62.50;;;;;;4914655;29;20195;-73
2023/03/01 14:05:58;;;;;;;17.83;12.47;;;14.20;63.40;;;;;;4915328;29;20187;-73
2023/03/01 14:08:26;;;;;;;16.40;13.23;;;14.10;64.40;;;;;;4915782;29;20183;-72
2023/03/01 14:11:26;;;;;;;14.33;12.73;;;13.80;65.80;;;;;;4916214;29;20672;-73
2023/03/01 14:14:10;;;;;;;18.17;15.27;;;12.60;67.00;;;;;;4917770;29;20203;-74
2023/03/01 14:16:58;;;;;;;19.47;16.67;;;12.00;70.40;;;;;;4917190;29;20194;-73
2023/03/01 14:19:26;;;;;;;22.57;15.30;;;12.30;71.00;;;;;;4916026;29;20191;-73
2023/03/01 14:22:04;;;;;;;18.40;15.10;;;11.80;70.40;;;;;;4915506;29;20230;-73
2023/03/01 14:24:32;;;;;;;18.40;14.30;;;11.60;71.50;;;;;;4914011;29;20558;-74
2023/03/01 14:27:00;;;;;;;16.43;13.57;;;11.30;72.30;;;;;;4915092;29;20206;-73
2023/03/01 14:29:34;;;;;;;20.00;16.17;;;11.00;73.80;;;;;;4915350;29;20263;-73
2023/03/01 14:32:31;;;;;;;19.17;16.73;;;10.90;74.80;;;;;;4914269;29;20722;-73
2023/03/01 14:34:58;;;;;;;19.97;16.63;;;11.10;73.50;;;;;;4910413;29;20201;-73
2023/03/01 14:37:34;;;;;;;17.10;12.57;;;10.80;74.80;;;;;;4915471;29;20183;-73
2023/03/01 14:40:04;;;;;;;20.07;16.13;;;10.80;74.80;;;;;;4915381;29;20186;-74
2023/03/01 14:42:35;;;;;;;18.00;16.20;;;10.70;74.80;;;;;;4914857;29;20218;-75
2023/03/01 14:45:02;;;;;;;20.83;15.77;;;10.70;75.40;;;;;;4913669;29;20572;-74
2023/03/01 14:47:38;;;;;;;19.63;16.17;;;10.20;76.30;;;;;;4915242;29;20648;-73
2023/03/01 14:50:14;;;;;;;17.17;15.30;;;9.90;76.60;;;;;;4913802;29;20237;-73
2023/03/01 14:52:44;;;;;;;19.90;15.63;;;10.30;77.10;;;;;;4915148;29;20225;-74
2023/03/01 14:55:21;;;;;;;20.83;16.70;;;10.80;76.00;;;;;;4915688;29;20187;-73
2023/03/01 14:57:50;;;;;;;18.20;16.23;;;11.10;75.40;;;;;;4915126;29;20187;-73
2023/03/01 15:00:25;;;;;;;18.07;14.57;;;11.40;74.30;;;;;;4913850;29;20183;-74
2023/03/01 15:02:52;;;;;;;19.23;15.73;;;11.10;75.10;;;;;;4914825;29;20289;-72
2023/03/01 15:05:28;;;;;;;14.47;13.00;;;10.70;75.70;;;;;;4914600;29;20187;-74
2023/03/01 15:07:56;;;;;;;18.93;15.50;;;10.40;76.00;;;;;;4914970;29;20191;-73
2023/03/01 15:10:28;;;;;;;13.93;12.27;;;10.50;76.40;;;;;;4914516;29;20189;-73
2023/03/01 15:12:54;;;;;;;19.80;14.60;;;10.30;76.50;;;;;;4913672;29;20215;-73
2023/03/01 15:15:24;;;;;;;17.30;12.97;;;10.10;77.10;;;;;;4914519;29;20183;-73
2023/03/01 15:17:55;;;;;;;17.57;14.20;;;10.10;77.50;;;;;;4913662;29;20215;-73
2023/03/01 15:20:27;;;;;;;16.60;13.50;;;9.80;78.00;;;;;;4914793;29;20186;-74
2023/03/01 15:22:54;;;;;;;21.13;14.60;;;9.50;78.80;;;;;;4913672;29;20191;-73
2023/03/01 15:25:24;;;;;;;20.97;13.53;;;9.30;79.40;;;;;;4914499;29;20206;-73
2023/03/01 15:27:52;;;;;;;18.00;12.90;;;9.20;80.20;;;;;;4914943;29;20652;-73
2023/03/01 15:30:44;;;;;;;20.07;15.77;;;9.20;80.50;;;;;;4918559;29;20190;-73
2023/03/01 15:33:22;;;;;;;22.63;15.77;;;9.20;81.40;;;;;;4916379;29;20231;-74
2023/03/01 15:35:50;;;;;;;29.10;16.57;;;9.40;81.30;;;;;;4918101;29;20193;-73
2023/03/01 15:38:50;;;;;;;23.87;16.80;;;9.40;80.50;;;;;;4915572;29;20187;-73
2023/03/01 15:41:26;;;;;;;23.23;17.27;;;9.30;80.80;;;;;;4910958;29;20259;-73
2023/03/01 15:43:56;;;;;;;18.43;14.27;;;9.20;81.40;;;;;;4918520;29;20191;-73
2023/03/01 15:46:29;;;;;;;16.53;12.60;;;9.20;81.20;;;;;;4918664;29;20191;-73
2023/03/01 15:49:05;;;;;;;21.73;16.43;;;9.10;81.40;;;;;;4918158;29;20243;-72
2023/03/01 15:51:36;;;;;;;22.03;16.87;;;8.90;82.60;;;;;;4917764;29;20210;-72
2023/03/01 15:54:15;;;;;;;19.23;16.13;;;8.90;82.50;;;;;;4918095;29;20190;-74
2023/03/01 15:56:41;;;;;;;22.37;16.70;;;8.90;82.30;;;;;;4917807;29;20662;-72
2023/03/01 15:59:13;;;;;;;22.00;16.47;;;8.90;82.60;;;;;;4916852;29;20187;-73
2023/03/01 16:01:39;;;;;;;19.03;16.57;;;8.80;82.70;;;;;;4917638;29;20247;-73
2023/03/01 16:04:05;;;;;;;21.53;17.17;;;8.80;84.30;;;;;;4917592;29;20193;-72
2023/03/01 16:06:31;;;;;;;24.80;18.07;;;8.90;83.40;;;;;;4917621;29;20279;-72
2023/03/01 16:08:57;;;;;;;26.50;16.97;;;8.80;82.60;;;;;;4916567;29;20185;-72
2023/03/01 16:11:23;;;;;;;21.37;16.13;;;8.70;83.40;;;;;;4927606;29;20210;-73
2023/03/01 16:13:49;;;;;;;21.20;15.60;;;8.60;82.70;;;;;;4936029;29;20604;-73
2023/03/01 16:16:16;;;;;;;27.60;18.30;;;8.50;83.30;;;;;;4935327;29;20193;-74
2023/03/01 16:18:43;;;;;;;18.77;14.93;;;8.40;83.60;;;;;;4936225;29;20179;-73
2023/03/01 16:21:15;;;;;;;20.17;15.70;;;8.30;84.00;;;;;;4938297;29;21049;-73
2023/03/01 16:23:42;;;;;;;24.60;16.83;;;8.40;84.00;;;;;;4939332;29;20223;-73
2023/03/01 16:26:09;;;;;;;19.17;14.73;;;8.60;84.00;;;;;;4936653;29;20190;-73
2023/03/01 16:28:35;;;;;;;20.30;14.67;;;8.70;83.20;;;;;;4936539;29;20566;-73
2023/03/01 16:31:01;;;;;;;25.90;16.17;;;8.80;82.60;;;;;;4935267;29;20228;-73
2023/03/01 16:33:27;;;;;;;20.17;15.77;;;8.90;82.80;;;;;;4935272;29;20221;-73
2023/03/01 16:35:53;;;;;;;22.37;15.43;;;8.90;82.10;;;;;;4934905;29;20560;-73
2023/03/01 16:38:18;;;;;;;22.53;15.73;;;8.80;82.40;;;;;;4931009;29;20198;-73
2023/03/01 16:40:50;;;;;;;23.87;15.50;;;8.60;83.50;;;;;;4909089;29;20238;-72
2023/03/01 16:43:16;;;;;;;19.60;15.90;;;8.30;83.90;;;;;;4916979;29;20198;-70
2023/03/01 16:45:44;;;;;;;20.47;15.40;;;8.00;84.70;;;;;;4915623;29;20676;-71
2023/03/01 16:48:10;;;;;;;20.00;15.30;;;7.70;85.80;;;;;;4917238;29;20286;-71
2023/03/01 16:50:37;;;;;;;21.33;15.40;;;7.60;86.70;;;;;;4913717;29;20209;-71
2023/03/01 16:53:03;;;;;;;19.37;13.93;;;7.40;87.40;;;;;;4898379;29;20215;-71
2023/03/01 16:55:29;;;;;;;20.93;15.17;;;7.30;87.80;;;;;;4896658;29;20559;-72
2023/03/01 16:57:55;;;;;;;22.87;15.97;;;7.10;88.40;;;;;;4898124;29;20184;-73
2023/03/01 17:00:22;;;;;;;24.53;16.57;;;7.00;89.70;;;;;;4898388;29;20244;-71